sensor_id;sensor_type;location;lat;lon;timestamp;temperature;humidity
490;DHT22;231;48.120;11.576;2024-03-08T00:00:17;-0.30;99.90
490;DHT22;231;48.120;11.576;2024-03-08T00:02:45;-0.30;99.90
490;DHT22;231;48.120;11.576;2024-03-08T00:05:12;-0.20;99.90
490;DHT22;231;48.120;11.576;2024-03-08T00:07:40;-0.30;99.90
490;DHT22;231;48.120;11.576;2024-03-08T00:10:09;-0.30;99.90
490;DHT22;231;48.120;11.576;2024-03-08T00:12:38;-0.30;99.90
490;DHT22;231;48.120;11.576;2024-03-08T00:15:08;-0.40;99.90
490;DHT22;231;48.120;11.576;2024-03-08T00:17:35;-0.40;99.90
490;DHT22;231;48.120;11.576;2024-03-08T00:20:01;-0.40;99.90
490;DHT22;231;48.120;11.576;2024-03-08T00:22:33;-0.40;99.90
490;DHT22;231;48.120;11.576;2024-03-08T00:25:01;-0.40;99.90
490;DHT22;231;48.120;11.576;2024-03-08T00:27:28;-0.50;99.90
490;DHT22;231;48.120;11.576;2024-03-08T00:29:58;-0.50;99.90
490;DHT22;231;48.120;11.576;2024-03-08T00:32:25;-0.50;99.90
490;DHT22;231;48.120;11.576;2024-03-08T00:34:53;-0.50;99.90
490;DHT22;231;48.120;11.576;2024-03-08T00:37:20;-0.60;99.90
490;DHT22;231;48.120;11.576;2024-03-08T00:39:47;-0.60;99.90
490;DHT22;231;48.120;11.576;2024-03-08T00:42:15;-0.70;99.90
490;DHT22;231;48.120;11.576;2024-03-08T00:44:42;-0.70;99.90
490;DHT22;231;48.120;11.576;2024-03-08T00:47:10;-0.70;99.90
490;DHT22;231;48.120;11.576;2024-03-08T00:49:37;-0.70;99.90
490;DHT22;231;48.120;11.576;2024-03-08T00:52:04;-0.70;99.90
490;DHT22;231;48.120;11.576;2024-03-08T00:54:33;-0.70;99.90
490;DHT22;231;48.120;11.576;2024-03-08T00:57:01;-0.70;99.90
490;DHT22;231;48.120;11.576;2024-03-08T00:59:29;-0.60;99.90
490;DHT22;231;48.120;11.576;2024-03-08T01:01:58;-0.60;99.90
490;DHT22;231;48.120;11.576;2024-03-08T01:04:27;-0.60;99.90
490;DHT22;231;48.120;11.576;2024-03-08T01:06:55;-0.60;99.90
490;DHT22;231;48.120;11.576;2024-03-08T01:09:22;-0.50;99.90
490;DHT22;231;48.120;11.576;2024-03-08T01:11:48;-0.60;99.90
490;DHT22;231;48.120;11.576;2024-03-08T01:14:16;-0.50;99.90
490;DHT22;231;48.120;11.576;2024-03-08T01:16:43;-0.30;99.90
490;DHT22;231;48.120;11.576;2024-03-08T01:19:09;-0.30;99.90
490;DHT22;231;48.120;11.576;2024-03-08T01:21:38;-0.10;99.90
490;DHT22;231;48.120;11.576;2024-03-08T01:24:05;-0.20;99.90
490;DHT22;231;48.120;11.576;2024-03-08T01:26:31;-0.30;99.90
490;DHT22;231;48.120;11.576;2024-03-08T01:28:59;-0.30;99.90
490;DHT22;231;48.120;11.576;2024-03-08T01:31:28;-0.40;99.90
490;DHT22;231;48.120;11.576;2024-03-08T01:33:55;-0.50;99.90
490;DHT22;231;48.120;11.576;2024-03-08T01:36:22;-0.60;99.90
490;DHT22;231;48.120;11.576;2024-03-08T01:38:51;-0.60;99.90
490;DHT22;231;48.120;11.576;2024-03-08T01:41:18;-0.70;99.90
490;DHT22;231;48.120;11.576;2024-03-08T01:43:45;-0.70;99.90
490;DHT22;231;48.120;11.576;2024-03-08T01:46:15;-0.70;99.90
490;DHT22;231;48.120;11.576;2024-03-08T01:48:43;-0.80;99.90
490;DHT22;231;48.120;11.576;2024-03-08T01:51:10;-0.80;99.90
490;DHT22;231;48.120;11.576;2024-03-08T01:53:38;-0.80;99.90
490;DHT22;231;48.120;11.576;2024-03-08T01:56:07;-0.70;99.90
490;DHT22;231;48.120;11.576;2024-03-08T01:58:35;-0.70;99.90
490;DHT22;231;48.120;11.576;2024-03-08T02:01:02;-0.70;99.90
490;DHT22;231;48.120;11.576;2024-03-08T02:03:30;-0.60;99.90
490;DHT22;231;48.120;11.576;2024-03-08T02:05:57;-0.60;99.90
490;DHT22;231;48.120;11.576;2024-03-08T02:08:24;-0.60;99.90
490;DHT22;231;48.120;11.576;2024-03-08T02:10:51;-0.70;99.90
490;DHT22;231;48.120;11.576;2024-03-08T02:13:20;-0.70;99.90
490;DHT22;231;48.120;11.576;2024-03-08T02:15:50;-0.70;99.90
490;DHT22;231;48.120;11.576;2024-03-08T02:18:16;-0.60;99.90
490;DHT22;231;48.120;11.576;2024-03-08T02:20:45;-0.50;99.90
490;DHT22;231;48.120;11.576;2024-03-08T02:23:13;-0.50;99.90
490;DHT22;231;48.120;11.576;2024-03-08T02:25:40;-0.50;99.90
490;DHT22;231;48.120;11.576;2024-03-08T02:28:08;-0.50;99.90
490;DHT22;231;48.120;11.576;2024-03-08T02:30:35;-0.50;99.90
490;DHT22;231;48.120;11.576;2024-03-08T02:33:02;-0.70;99.90
490;DHT22;231;48.120;11.576;2024-03-08T02:35:29;-0.80;99.90
490;DHT22;231;48.120;11.576;2024-03-08T02:37:57;-0.90;99.90
490;DHT22;231;48.120;11.576;2024-03-08T02:40:24;-0.90;99.90
490;DHT22;231;48.120;11.576;2024-03-08T02:42:51;-0.90;99.90
490;DHT22;231;48.120;11.576;2024-03-08T02:45:18;-0.90;99.90
490;DHT22;231;48.120;11.576;2024-03-08T02:47:46;-0.80;99.90
490;DHT22;231;48.120;11.576;2024-03-08T02:50:15;-0.70;99.90
490;DHT22;231;48.120;11.576;2024-03-08T02:52:42;-0.70;99.90
490;DHT22;231;48.120;11.576;2024-03-08T02:55:10;-0.70;99.90
490;DHT22;231;48.120;11.576;2024-03-08T02:57:40;-0.70;99.90
490;DHT22;231;48.120;11.576;2024-03-08T03:00:08;-0.60;99.90
490;DHT22;231;48.120;11.576;2024-03-08T03:02:35;-0.70;99.90
490;DHT22;231;48.120;11.576;2024-03-08T03:05:03;-0.70;99.90
490;DHT22;231;48.120;11.576;2024-03-08T03:07:32;-0.90;99.90
490;DHT22;231;48.120;11.576;2024-03-08T03:09:59;-0.90;99.90
490;DHT22;231;48.120;11.576;2024-03-08T03:12:28;-0.90;99.90
490;DHT22;231;48.120;11.576;2024-03-08T03:14:55;-0.70;99.90
490;DHT22;231;48.120;11.576;2024-03-08T03:17:22;-0.80;99.90
490;DHT22;231;48.120;11.576;2024-03-08T03:19:50;-0.90;99.90
490;DHT22;231;48.120;11.576;2024-03-08T03:22:17;-1.00;99.90
490;DHT22;231;48.120;11.576;2024-03-08T03:24:44;-1.00;99.90
490;DHT22;231;48.120;11.576;2024-03-08T03:27:12;-1.00;99.90
490;DHT22;231;48.120;11.576;2024-03-08T03:29:42;-1.00;99.90
490;DHT22;231;48.120;11.576;2024-03-08T03:32:11;-1.10;99.90
490;DHT22;231;48.120;11.576;2024-03-08T03:34:38;-0.90;99.90
490;DHT22;231;48.120;11.576;2024-03-08T03:37:05;-0.90;99.90
490;DHT22;231;48.120;11.576;2024-03-08T03:39:34;-1.00;99.90
490;DHT22;231;48.120;11.576;2024-03-08T03:42:06;-1.10;99.90
490;DHT22;231;48.120;11.576;2024-03-08T03:44:33;-1.20;99.90
490;DHT22;231;48.120;11.576;2024-03-08T03:47:01;-1.20;99.90
490;DHT22;231;48.120;11.576;2024-03-08T03:49:28;-1.20;99.90
490;DHT22;231;48.120;11.576;2024-03-08T03:51:55;-1.20;99.90
490;DHT22;231;48.120;11.576;2024-03-08T03:54:21;-1.20;99.90
490;DHT22;231;48.120;11.576;2024-03-08T03:56:48;-1.20;99.90
490;DHT22;231;48.120;11.576;2024-03-08T03:59:18;-1.20;99.90
490;DHT22;231;48.120;11.576;2024-03-08T04:01:45;-1.10;99.90
490;DHT22;231;48.120;11.576;2024-03-08T04:04:13;-1.00;99.90
490;DHT22;231;48.120;11.576;2024-03-08T04:06:40;-1.00;99.90
490;DHT22;231;48.120;11.576;2024-03-08T04:09:07;-1.00;99.90
490;DHT22;231;48.120;11.576;2024-03-08T04:11:33;-1.10;99.90
490;DHT22;231;48.120;11.576;2024-03-08T04:14:00;-1.20;99.90
490;DHT22;231;48.120;11.576;2024-03-08T04:16:27;-1.20;99.90
490;DHT22;231;48.120;11.576;2024-03-08T04:18:54;-1.20;99.90
490;DHT22;231;48.120;11.576;2024-03-08T04:21:22;-1.20;99.90
490;DHT22;231;48.120;11.576;2024-03-08T04:23:49;-1.30;99.90
490;DHT22;231;48.120;11.576;2024-03-08T04:26:15;-1.20;99.90
490;DHT22;231;48.120;11.576;2024-03-08T04:28:42;-1.20;99.90
490;DHT22;231;48.120;11.576;2024-03-08T04:31:09;-1.20;99.90
490;DHT22;231;48.120;11.576;2024-03-08T04:33:36;-1.30;99.90
490;DHT22;231;48.120;11.576;2024-03-08T04:36:04;-1.30;99.90
490;DHT22;231;48.120;11.576;2024-03-08T04:38:34;-1.20;99.90
490;DHT22;231;48.120;11.576;2024-03-08T04:41:01;-1.10;99.90
490;DHT22;231;48.120;11.576;2024-03-08T04:43:29;-1.20;99.90
490;DHT22;231;48.120;11.576;2024-03-08T04:45:56;-1.20;99.90
490;DHT22;231;48.120;11.576;2024-03-08T04:48:22;-1.30;99.90
490;DHT22;231;48.120;11.576;2024-03-08T04:50:52;-1.30;99.90
490;DHT22;231;48.120;11.576;2024-03-08T04:53:19;-1.30;99.90
490;DHT22;231;48.120;11.576;2024-03-08T04:55:47;-1.30;99.90
490;DHT22;231;48.120;11.576;2024-03-08T04:58:14;-1.30;99.90
490;DHT22;231;48.120;11.576;2024-03-08T05:00:42;-1.20;99.90
490;DHT22;231;48.120;11.576;2024-03-08T05:03:08;-1.10;99.90
490;DHT22;231;48.120;11.576;2024-03-08T05:05:35;-1.10;99.90
490;DHT22;231;48.120;11.576;2024-03-08T05:08:02;-1.10;99.90
490;DHT22;231;48.120;11.576;2024-03-08T05:10:29;-1.00;99.90
490;DHT22;231;48.120;11.576;2024-03-08T05:12:57;-0.90;99.90
490;DHT22;231;48.120;11.576;2024-03-08T05:15:24;-0.90;99.90
490;DHT22;231;48.120;11.576;2024-03-08T05:17:51;-0.90;99.90
490;DHT22;231;48.120;11.576;2024-03-08T05:20:18;-0.90;99.90
490;DHT22;231;48.120;11.576;2024-03-08T05:22:45;-0.80;99.90
490;DHT22;231;48.120;11.576;2024-03-08T05:25:12;-0.70;99.90
490;DHT22;231;48.120;11.576;2024-03-08T05:27:40;-0.70;99.90
490;DHT22;231;48.120;11.576;2024-03-08T05:30:08;-0.70;99.90
490;DHT22;231;48.120;11.576;2024-03-08T05:32:40;-0.60;99.90
490;DHT22;231;48.120;11.576;2024-03-08T05:35:10;-0.40;99.90
490;DHT22;231;48.120;11.576;2024-03-08T05:37:37;-0.30;99.90
490;DHT22;231;48.120;11.576;2024-03-08T05:40:05;-0.20;99.90
490;DHT22;231;48.120;11.576;2024-03-08T05:42:34;-0.20;99.90
490;DHT22;231;48.120;11.576;2024-03-08T05:45:01;-0.10;99.90
490;DHT22;231;48.120;11.576;2024-03-08T05:47:30;-0.10;99.90
490;DHT22;231;48.120;11.576;2024-03-08T05:49:56;0.00;99.90
490;DHT22;231;48.120;11.576;2024-03-08T05:52:23;0.00;99.90
490;DHT22;231;48.120;11.576;2024-03-08T05:54:51;0.10;99.90
490;DHT22;231;48.120;11.576;2024-03-08T05:57:18;0.10;99.90
490;DHT22;231;48.120;11.576;2024-03-08T05:59:45;0.20;99.90
490;DHT22;231;48.120;11.576;2024-03-08T06:02:13;0.20;99.90
490;DHT22;231;48.120;11.576;2024-03-08T06:04:45;0.20;99.90
490;DHT22;231;48.120;11.576;2024-03-08T06:07:12;0.20;99.90
490;DHT22;231;48.120;11.576;2024-03-08T06:09:39;0.30;99.90
490;DHT22;231;48.120;11.576;2024-03-08T06:12:06;0.40;99.90
490;DHT22;231;48.120;11.576;2024-03-08T06:14:36;0.40;99.90
490;DHT22;231;48.120;11.576;2024-03-08T06:17:03;0.50;99.90
490;DHT22;231;48.120;11.576;2024-03-08T06:19:32;0.50;99.90
490;DHT22;231;48.120;11.576;2024-03-08T06:22:01;0.60;99.90
490;DHT22;231;48.120;11.576;2024-03-08T06:24:31;0.60;99.90
490;DHT22;231;48.120;11.576;2024-03-08T06:26:58;0.70;99.90
490;DHT22;231;48.120;11.576;2024-03-08T06:29:25;0.90;99.90
490;DHT22;231;48.120;11.576;2024-03-08T06:31:51;0.90;99.90
490;DHT22;231;48.120;11.576;2024-03-08T06:34:19;0.90;99.90
490;DHT22;231;48.120;11.576;2024-03-08T06:36:46;1.00;99.90
490;DHT22;231;48.120;11.576;2024-03-08T06:39:14;1.00;99.90
490;DHT22;231;48.120;11.576;2024-03-08T06:41:41;1.10;99.90
490;DHT22;231;48.120;11.576;2024-03-08T06:44:10;1.20;99.90
490;DHT22;231;48.120;11.576;2024-03-08T06:46:36;1.20;99.90
490;DHT22;231;48.120;11.576;2024-03-08T06:49:04;1.10;99.90
490;DHT22;231;48.120;11.576;2024-03-08T06:51:32;1.20;99.90
490;DHT22;231;48.120;11.576;2024-03-08T06:53:59;1.20;99.90
490;DHT22;231;48.120;11.576;2024-03-08T06:56:27;1.30;99.90
490;DHT22;231;48.120;11.576;2024-03-08T06:58:55;1.40;99.90
490;DHT22;231;48.120;11.576;2024-03-08T07:01:22;1.40;99.90
490;DHT22;231;48.120;11.576;2024-03-08T07:03:49;1.40;99.90
490;DHT22;231;48.120;11.576;2024-03-08T07:06:18;1.50;99.90
490;DHT22;231;48.120;11.576;2024-03-08T07:08:45;1.60;99.90
490;DHT22;231;48.120;11.576;2024-03-08T07:11:14;1.70;99.90
490;DHT22;231;48.120;11.576;2024-03-08T07:13:45;1.80;97.60
490;DHT22;231;48.120;11.576;2024-03-08T07:16:12;1.80;93.30
490;DHT22;231;48.120;11.576;2024-03-08T07:18:39;1.80;95.80
490;DHT22;231;48.120;11.576;2024-03-08T07:21:08;2.00;98.30
490;DHT22;231;48.120;11.576;2024-03-08T07:23:35;2.00;95.90
490;DHT22;231;48.120;11.576;2024-03-08T07:26:28;2.10;93.80
490;DHT22;231;48.120;11.576;2024-03-08T07:28:57;2.20;89.20
490;DHT22;231;48.120;11.576;2024-03-08T07:31:26;2.30;84.30
490;DHT22;231;48.120;11.576;2024-03-08T07:34:03;2.40;88.90
490;DHT22;231;48.120;11.576;2024-03-08T07:36:33;2.60;88.40
490;DHT22;231;48.120;11.576;2024-03-08T07:39:00;2.80;91.00
490;DHT22;231;48.120;11.576;2024-03-08T07:41:27;2.90;91.50
490;DHT22;231;48.120;11.576;2024-03-08T07:43:54;3.10;81.20
490;DHT22;231;48.120;11.576;2024-03-08T07:46:22;3.20;68.70
490;DHT22;231;48.120;11.576;2024-03-08T07:48:49;3.30;49.10
490;DHT22;231;48.120;11.576;2024-03-08T07:51:17;3.40;48.20
490;DHT22;231;48.120;11.576;2024-03-08T07:53:44;3.60;50.00
490;DHT22;231;48.120;11.576;2024-03-08T07:56:11;3.90;50.60
490;DHT22;231;48.120;11.576;2024-03-08T07:58:39;4.10;45.70
490;DHT22;231;48.120;11.576;2024-03-08T08:01:07;4.50;37.20
490;DHT22;231;48.120;11.576;2024-03-08T08:03:35;4.70;29.10
490;DHT22;231;48.120;11.576;2024-03-08T08:06:04;4.90;29.20
490;DHT22;231;48.120;11.576;2024-03-08T08:08:30;5.10;27.80
490;DHT22;231;48.120;11.576;2024-03-08T08:10:57;5.20;23.60
490;DHT22;231;48.120;11.576;2024-03-08T08:13:25;5.40;23.70
490;DHT22;231;48.120;11.576;2024-03-08T08:15:53;5.70;22.30
490;DHT22;231;48.120;11.576;2024-03-08T08:18:20;5.90;18.50
490;DHT22;231;48.120;11.576;2024-03-08T08:20:51;5.80;18.60
490;DHT22;231;48.120;11.576;2024-03-08T08:23:18;5.80;18.30
490;DHT22;231;48.120;11.576;2024-03-08T08:25:46;5.60;18.20
490;DHT22;231;48.120;11.576;2024-03-08T08:28:15;5.60;19.30
490;DHT22;231;48.120;11.576;2024-03-08T08:30:43;6.20;21.20
490;DHT22;231;48.120;11.576;2024-03-08T08:33:10;7.10;18.90
490;DHT22;231;48.120;11.576;2024-03-08T08:35:37;7.90;14.90
490;DHT22;231;48.120;11.576;2024-03-08T08:38:05;9.10;11.80
490;DHT22;231;48.120;11.576;2024-03-08T08:40:33;10.60;5.60
490;DHT22;231;48.120;11.576;2024-03-08T08:43:01;12.00;1.30
490;DHT22;231;48.120;11.576;2024-03-08T08:45:30;12.80;1.00
490;DHT22;231;48.120;11.576;2024-03-08T08:47:57;13.60;1.00
490;DHT22;231;48.120;11.576;2024-03-08T08:50:26;15.00;1.00
490;DHT22;231;48.120;11.576;2024-03-08T08:52:53;16.30;1.00
490;DHT22;231;48.120;11.576;2024-03-08T08:55:22;17.20;1.00
490;DHT22;231;48.120;11.576;2024-03-08T08:57:51;17.90;1.00
490;DHT22;231;48.120;11.576;2024-03-08T09:00:19;18.20;1.00
490;DHT22;231;48.120;11.576;2024-03-08T09:02:47;19.20;1.00
490;DHT22;231;48.120;11.576;2024-03-08T09:05:14;19.90;1.00
490;DHT22;231;48.120;11.576;2024-03-08T09:07:42;20.40;1.00
490;DHT22;231;48.120;11.576;2024-03-08T09:10:10;21.20;1.00
490;DHT22;231;48.120;11.576;2024-03-08T09:12:39;22.20;1.00
490;DHT22;231;48.120;11.576;2024-03-08T09:15:06;22.90;1.00
490;DHT22;231;48.120;11.576;2024-03-08T09:17:36;23.00;1.00
490;DHT22;231;48.120;11.576;2024-03-08T09:20:06;22.20;1.00
490;DHT22;231;48.120;11.576;2024-03-08T09:22:34;22.60;1.00
490;DHT22;231;48.120;11.576;2024-03-08T09:25:00;22.90;1.00
490;DHT22;231;48.120;11.576;2024-03-08T09:27:27;24.10;1.00
490;DHT22;231;48.120;11.576;2024-03-08T09:29:55;24.80;1.00
490;DHT22;231;48.120;11.576;2024-03-08T09:32:22;25.70;1.00
490;DHT22;231;48.120;11.576;2024-03-08T09:34:49;26.80;1.00
490;DHT22;231;48.120;11.576;2024-03-08T09:37:16;26.80;1.00
490;DHT22;231;48.120;11.576;2024-03-08T09:39:44;26.70;1.00
490;DHT22;231;48.120;11.576;2024-03-08T09:42:11;26.20;1.00
490;DHT22;231;48.120;11.576;2024-03-08T09:44:43;26.10;1.00
490;DHT22;231;48.120;11.576;2024-03-08T09:47:13;26.00;1.00
490;DHT22;231;48.120;11.576;2024-03-08T09:49:40;26.60;1.00
490;DHT22;231;48.120;11.576;2024-03-08T09:52:08;27.60;1.00
490;DHT22;231;48.120;11.576;2024-03-08T09:54:37;27.60;1.00
490;DHT22;231;48.120;11.576;2024-03-08T09:57:06;28.10;1.00
490;DHT22;231;48.120;11.576;2024-03-08T09:59:34;28.60;1.00
490;DHT22;231;48.120;11.576;2024-03-08T10:02:15;29.50;1.00
490;DHT22;231;48.120;11.576;2024-03-08T10:04:43;30.10;1.00
490;DHT22;231;48.120;11.576;2024-03-08T10:07:12;30.70;1.00
490;DHT22;231;48.120;11.576;2024-03-08T10:09:39;31.10;1.00
490;DHT22;231;48.120;11.576;2024-03-08T10:12:07;30.90;1.00
490;DHT22;231;48.120;11.576;2024-03-08T10:14:39;30.70;1.00
490;DHT22;231;48.120;11.576;2024-03-08T10:17:07;30.50;1.00
490;DHT22;231;48.120;11.576;2024-03-08T10:19:35;29.80;1.00
490;DHT22;231;48.120;11.576;2024-03-08T10:22:03;29.10;1.00
490;DHT22;231;48.120;11.576;2024-03-08T10:24:30;28.70;1.00
490;DHT22;231;48.120;11.576;2024-03-08T10:26:59;27.50;1.00
490;DHT22;231;48.120;11.576;2024-03-08T10:29:27;27.30;1.00
490;DHT22;231;48.120;11.576;2024-03-08T10:31:54;27.70;1.00
490;DHT22;231;48.120;11.576;2024-03-08T10:34:22;28.40;1.00
490;DHT22;231;48.120;11.576;2024-03-08T10:36:52;29.30;1.00
490;DHT22;231;48.120;11.576;2024-03-08T10:39:22;29.20;1.00
490;DHT22;231;48.120;11.576;2024-03-08T10:45:06;28.00;1.00
490;DHT22;231;48.120;11.576;2024-03-08T10:47:41;27.60;1.00
490;DHT22;231;48.120;11.576;2024-03-08T10:50:11;27.70;1.00
490;DHT22;231;48.120;11.576;2024-03-08T10:52:43;27.50;1.00
490;DHT22;231;48.120;11.576;2024-03-08T10:55:12;27.70;1.00
490;DHT22;231;48.120;11.576;2024-03-08T10:57:41;27.50;1.00
490;DHT22;231;48.120;11.576;2024-03-08T11:00:08;27.20;1.00
490;DHT22;231;48.120;11.576;2024-03-08T11:02:37;27.20;1.00
490;DHT22;231;48.120;11.576;2024-03-08T11:05:05;27.50;1.00
490;DHT22;231;48.120;11.576;2024-03-08T11:07:40;27.10;1.00
490;DHT22;231;48.120;11.576;2024-03-08T11:10:19;26.60;1.00
490;DHT22;231;48.120;11.576;2024-03-08T11:12:46;27.10;1.00
490;DHT22;231;48.120;11.576;2024-03-08T11:15:14;27.70;1.00
490;DHT22;231;48.120;11.576;2024-03-08T11:17:48;26.70;1.00
490;DHT22;231;48.120;11.576;2024-03-08T11:20:16;25.30;1.00
490;DHT22;231;48.120;11.576;2024-03-08T11:22:48;24.80;1.00
490;DHT22;231;48.120;11.576;2024-03-08T11:25:36;25.00;1.00
490;DHT22;231;48.120;11.576;2024-03-08T11:28:11;25.60;1.00
490;DHT22;231;48.120;11.576;2024-03-08T11:30:42;26.20;1.00
490;DHT22;231;48.120;11.576;2024-03-08T11:33:12;25.80;1.00
490;DHT22;231;48.120;11.576;2024-03-08T11:35:39;25.20;1.00
490;DHT22;231;48.120;11.576;2024-03-08T11:38:08;25.00;1.00
490;DHT22;231;48.120;11.576;2024-03-08T11:40:37;25.00;1.00
490;DHT22;231;48.120;11.576;2024-03-08T11:43:05;24.50;1.00
490;DHT22;231;48.120;11.576;2024-03-08T11:45:33;24.70;1.00
490;DHT22;231;48.120;11.576;2024-03-08T11:48:01;25.00;1.00
490;DHT22;231;48.120;11.576;2024-03-08T11:50:29;24.80;1.00
490;DHT22;231;48.120;11.576;2024-03-08T11:53:00;24.40;1.00
490;DHT22;231;48.120;11.576;2024-03-08T11:55:28;23.90;1.00
490;DHT22;231;48.120;11.576;2024-03-08T11:58:04;23.50;1.00
490;DHT22;231;48.120;11.576;2024-03-08T12:00:33;23.60;1.00
490;DHT22;231;48.120;11.576;2024-03-08T12:03:04;23.70;1.00
490;DHT22;231;48.120;11.576;2024-03-08T12:05:32;23.60;1.00
490;DHT22;231;48.120;11.576;2024-03-08T12:07:59;24.00;1.00
490;DHT22;231;48.120;11.576;2024-03-08T12:10:27;24.10;1.00
490;DHT22;231;48.120;11.576;2024-03-08T12:12:58;24.20;1.00
490;DHT22;231;48.120;11.576;2024-03-08T12:15:28;24.10;1.00
490;DHT22;231;48.120;11.576;2024-03-08T12:17:59;22.80;1.00
490;DHT22;231;48.120;11.576;2024-03-08T12:20:27;22.30;1.00
490;DHT22;231;48.120;11.576;2024-03-08T12:22:55;22.20;1.00
490;DHT22;231;48.120;11.576;2024-03-08T12:25:26;22.00;1.00
490;DHT22;231;48.120;11.576;2024-03-08T12:27:53;21.90;1.00
490;DHT22;231;48.120;11.576;2024-03-08T12:30:23;21.80;1.00
490;DHT22;231;48.120;11.576;2024-03-08T12:32:55;22.20;1.00
490;DHT22;231;48.120;11.576;2024-03-08T12:35:24;21.90;1.00
490;DHT22;231;48.120;11.576;2024-03-08T12:37:52;21.30;1.00
490;DHT22;231;48.120;11.576;2024-03-08T12:40:25;21.40;1.00
490;DHT22;231;48.120;11.576;2024-03-08T12:42:53;21.40;1.00
490;DHT22;231;48.120;11.576;2024-03-08T12:45:20;21.30;1.00
490;DHT22;231;48.120;11.576;2024-03-08T12:47:49;20.80;1.00
490;DHT22;231;48.120;11.576;2024-03-08T12:50:18;20.60;1.00
490;DHT22;231;48.120;11.576;2024-03-08T12:52:45;20.60;1.00
490;DHT22;231;48.120;11.576;2024-03-08T12:55:12;20.70;1.00
490;DHT22;231;48.120;11.576;2024-03-08T12:57:39;20.90;1.00
490;DHT22;231;48.120;11.576;2024-03-08T13:00:07;20.80;1.00
490;DHT22;231;48.120;11.576;2024-03-08T13:02:39;19.80;1.00
490;DHT22;231;48.120;11.576;2024-03-08T13:05:06;18.40;1.00
490;DHT22;231;48.120;11.576;2024-03-08T13:07:37;17.10;1.00
490;DHT22;231;48.120;11.576;2024-03-08T13:10:05;15.90;1.00
490;DHT22;231;48.120;11.576;2024-03-08T13:12:32;14.90;1.00
490;DHT22;231;48.120;11.576;2024-03-08T13:15:03;14.10;1.00
490;DHT22;231;48.120;11.576;2024-03-08T13:17:31;13.30;1.00
490;DHT22;231;48.120;11.576;2024-03-08T13:19:58;12.80;1.00
490;DHT22;231;48.120;11.576;2024-03-08T13:22:25;12.30;1.00
490;DHT22;231;48.120;11.576;2024-03-08T13:24:55;12.00;1.00
490;DHT22;231;48.120;11.576;2024-03-08T13:27:22;11.80;1.00
490;DHT22;231;48.120;11.576;2024-03-08T13:29:50;11.60;1.00
490;DHT22;231;48.120;11.576;2024-03-08T13:32:17;11.50;1.00
490;DHT22;231;48.120;11.576;2024-03-08T13:34:46;11.30;1.00
490;DHT22;231;48.120;11.576;2024-03-08T13:37:16;11.20;1.00
490;DHT22;231;48.120;11.576;2024-03-08T13:39:43;11.00;1.00
490;DHT22;231;48.120;11.576;2024-03-08T13:42:12;10.80;1.00
490;DHT22;231;48.120;11.576;2024-03-08T13:44:44;10.70;1.00
490;DHT22;231;48.120;11.576;2024-03-08T13:47:11;10.70;1.00
490;DHT22;231;48.120;11.576;2024-03-08T13:49:39;10.60;1.00
490;DHT22;231;48.120;11.576;2024-03-08T13:52:06;10.60;1.00
490;DHT22;231;48.120;11.576;2024-03-08T13:54:34;10.70;1.00
490;DHT22;231;48.120;11.576;2024-03-08T13:57:01;10.70;1.00
490;DHT22;231;48.120;11.576;2024-03-08T13:59:31;10.70;1.00
490;DHT22;231;48.120;11.576;2024-03-08T14:01:59;10.80;1.00
490;DHT22;231;48.120;11.576;2024-03-08T14:04:27;10.70;1.00
490;DHT22;231;48.120;11.576;2024-03-08T14:06:55;10.60;1.00
490;DHT22;231;48.120;11.576;2024-03-08T14:09:29;10.50;1.00
490;DHT22;231;48.120;11.576;2024-03-08T14:11:56;10.50;1.00
490;DHT22;231;48.120;11.576;2024-03-08T14:14:24;10.50;1.00
490;DHT22;231;48.120;11.576;2024-03-08T14:16:53;10.40;1.00
490;DHT22;231;48.120;11.576;2024-03-08T14:19:24;10.40;1.00
490;DHT22;231;48.120;11.576;2024-03-08T14:21:51;10.20;1.00
490;DHT22;231;48.120;11.576;2024-03-08T14:24:19;10.30;1.00
490;DHT22;231;48.120;11.576;2024-03-08T14:26:46;10.40;1.00
490;DHT22;231;48.120;11.576;2024-03-08T14:29:14;10.50;1.00
490;DHT22;231;48.120;11.576;2024-03-08T14:31:41;10.50;1.00
490;DHT22;231;48.120;11.576;2024-03-08T14:34:10;10.50;1.00
490;DHT22;231;48.120;11.576;2024-03-08T14:36:37;10.60;1.00
490;DHT22;231;48.120;11.576;2024-03-08T14:39:04;10.60;1.00
490;DHT22;231;48.120;11.576;2024-03-08T14:41:33;10.60;1.00
490;DHT22;231;48.120;11.576;2024-03-08T14:43:59;10.60;1.00
490;DHT22;231;48.120;11.576;2024-03-08T14:46:27;10.60;1.00
490;DHT22;231;48.120;11.576;2024-03-08T14:48:54;10.40;1.00
490;DHT22;231;48.120;11.576;2024-03-08T14:51:23;10.30;1.00
490;DHT22;231;48.120;11.576;2024-03-08T14:53:53;10.20;1.00
490;DHT22;231;48.120;11.576;2024-03-08T14:56:20;10.20;1.00
490;DHT22;231;48.120;11.576;2024-03-08T14:58:48;10.20;1.00
490;DHT22;231;48.120;11.576;2024-03-08T15:01:17;10.10;1.00
490;DHT22;231;48.120;11.576;2024-03-08T15:03:53;10.20;1.00
490;DHT22;231;48.120;11.576;2024-03-08T15:06:20;10.20;1.00
490;DHT22;231;48.120;11.576;2024-03-08T15:08:49;10.10;1.00
490;DHT22;231;48.120;11.576;2024-03-08T15:11:17;9.90;1.00
490;DHT22;231;48.120;11.576;2024-03-08T15:13:47;9.90;1.00
490;DHT22;231;48.120;11.576;2024-03-08T15:16:17;9.90;1.00
490;DHT22;231;48.120;11.576;2024-03-08T15:18:44;9.90;1.00
490;DHT22;231;48.120;11.576;2024-03-08T15:21:13;9.90;1.00
490;DHT22;231;48.120;11.576;2024-03-08T15:23:45;9.80;1.00
490;DHT22;231;48.120;11.576;2024-03-08T15:26:16;9.70;1.00
490;DHT22;231;48.120;11.576;2024-03-08T15:28:43;9.60;1.00
490;DHT22;231;48.120;11.576;2024-03-08T15:31:11;9.40;1.00
490;DHT22;231;48.120;11.576;2024-03-08T15:33:39;9.30;1.00
490;DHT22;231;48.120;11.576;2024-03-08T15:36:10;9.30;1.00
490;DHT22;231;48.120;11.576;2024-03-08T15:38:39;9.20;1.00
490;DHT22;231;48.120;11.576;2024-03-08T15:41:06;9.10;1.00
490;DHT22;231;48.120;11.576;2024-03-08T15:43:37;9.00;1.00
490;DHT22;231;48.120;11.576;2024-03-08T15:46:05;9.00;1.00
490;DHT22;231;48.120;11.576;2024-03-08T15:48:36;8.90;1.00
490;DHT22;231;48.120;11.576;2024-03-08T15:51:03;8.90;1.00
490;DHT22;231;48.120;11.576;2024-03-08T15:53:32;8.90;1.00
490;DHT22;231;48.120;11.576;2024-03-08T15:56:00;8.80;1.00
490;DHT22;231;48.120;11.576;2024-03-08T15:58:28;8.70;1.00
490;DHT22;231;48.120;11.576;2024-03-08T16:00:56;8.60;1.00
490;DHT22;231;48.120;11.576;2024-03-08T16:03:25;8.60;1.00
490;DHT22;231;48.120;11.576;2024-03-08T16:05:54;8.50;1.00
490;DHT22;231;48.120;11.576;2024-03-08T16:08:20;8.50;1.00
490;DHT22;231;48.120;11.576;2024-03-08T16:10:50;8.40;1.00
490;DHT22;231;48.120;11.576;2024-03-08T16:13:20;8.30;1.00
490;DHT22;231;48.120;11.576;2024-03-08T16:15:50;8.30;1.00
490;DHT22;231;48.120;11.576;2024-03-08T16:18:19;8.20;1.00
490;DHT22;231;48.120;11.576;2024-03-08T16:20:47;8.20;1.10
490;DHT22;231;48.120;11.576;2024-03-08T16:23:18;8.20;1.20
490;DHT22;231;48.120;11.576;2024-03-08T16:25:45;8.20;1.40
490;DHT22;231;48.120;11.576;2024-03-08T16:28:13;8.20;1.50
490;DHT22;231;48.120;11.576;2024-03-08T16:30:41;8.20;1.30
490;DHT22;231;48.120;11.576;2024-03-08T16:33:13;8.10;1.50
490;DHT22;231;48.120;11.576;2024-03-08T16:35:47;8.00;2.10
490;DHT22;231;48.120;11.576;2024-03-08T16:38:15;7.90;2.60